createdAt,value
2017-09-27T00:01:06.979Z,26.03
2017-09-27T00:03:36.201Z,25.93
2017-09-27T00:06:04.679Z,28.67
2017-09-27T00:08:33.193Z,26.90
2017-09-27T00:11:01.711Z,26.10
2017-09-27T00:13:30.214Z,29.27
2017-09-27T00:15:59.545Z,30.60
2017-09-27T00:18:28.843Z,26.80
2017-09-27T00:20:57.362Z,32.70
2017-09-27T00:23:25.882Z,25.70
2017-09-27T00:25:55.112Z,23.70
2017-09-27T00:28:24.376Z,27.37
2017-09-27T00:30:53.615Z,24.23
2017-09-27T00:33:22.119Z,26.40
2017-09-27T00:35:50.615Z,35.77
2017-09-27T00:38:19.058Z,31.67
2017-09-27T00:40:47.562Z,31.37
2017-09-27T00:43:16.073Z,28.13
2017-09-27T00:45:44.607Z,30.40
2017-09-27T00:48:13.134Z,27.60
2017-09-27T00:50:41.260Z,33.43
2017-09-27T00:53:09.802Z,28.50
2017-09-27T00:55:37.966Z,26.30
2017-09-27T00:58:05.722Z,24.00
2017-09-27T01:00:34.185Z,31.30
2017-09-27T01:03:02.708Z,25.50
2017-09-27T01:05:31.162Z,30.27
2017-09-27T01:07:59.286Z,27.70
2017-09-27T01:10:27.459Z,31.57
2017-09-27T01:12:56.681Z,26.30
2017-09-27T01:15:25.150Z,27.20
2017-09-27T01:17:53.635Z,30.80
2017-09-27T01:20:22.131Z,31.10
2017-09-27T01:22:50.237Z,27.00
2017-09-27T01:25:18.740Z,29.13
2017-09-27T01:27:46.866Z,25.20
2017-09-27T01:30:14.966Z,25.10
2017-09-27T01:32:43.098Z,28.67
2017-09-27T01:35:11.219Z,25.73
2017-09-27T01:37:39.033Z,25.93
2017-09-27T01:40:07.359Z,30.20
2017-09-27T01:42:35.475Z,29.43
2017-09-27T01:45:03.623Z,28.50
2017-09-27T01:47:31.423Z,25.53
2017-09-27T01:49:59.958Z,28.60
2017-09-27T01:52:28.430Z,31.87
2017-09-27T01:54:56.257Z,21.47
2017-09-27T01:57:24.741Z,29.93
2017-09-27T01:59:53.174Z,23.03
2017-09-27T02:02:21.331Z,22.03
2017-09-27T02:04:49.782Z,24.27
2017-09-27T02:07:18.286Z,27.20
2017-09-27T02:09:46.751Z,25.17
2017-09-27T02:12:14.866Z,26.87
2017-09-27T02:14:43.298Z,30.03
2017-09-27T02:17:11.774Z,23.37
2017-09-27T02:19:40.223Z,31.63
2017-09-27T02:22:08.726Z,19.40
2017-09-27T02:24:37.278Z,20.90
2017-09-27T02:27:05.791Z,19.40
2017-09-27T02:29:35.075Z,20.23
2017-09-27T02:32:03.536Z,23.33
2017-09-27T02:34:32.007Z,21.83
2017-09-27T02:37:00.490Z,21.53
2017-09-27T02:39:28.786Z,21.87
2017-09-27T02:41:57.292Z,21.57
2017-09-27T02:44:26.569Z,23.33
2017-09-27T02:46:54.902Z,18.93
2017-09-27T02:49:23.407Z,19.83
2017-09-27T02:51:51.882Z,21.23
2017-09-27T02:54:20.460Z,22.17
2017-09-27T02:56:48.932Z,21.87
2017-09-27T02:59:17.409Z,23.40
2017-09-27T03:01:45.902Z,26.77
2017-09-27T03:04:14.443Z,24.23
2017-09-27T03:06:42.955Z,27.50
2017-09-27T03:09:12.188Z,20.50
2017-09-27T03:11:40.679Z,24.80
2017-09-27T03:14:09.153Z,22.90
2017-09-27T03:16:37.631Z,28.30
2017-09-27T03:19:06.102Z,21.20
2017-09-27T03:21:34.631Z,23.53
2017-09-27T03:24:03.176Z,23.53
2017-09-27T03:26:31.669Z,32.27
2017-09-27T03:29:00.145Z,24.93
2017-09-27T03:31:28.645Z,28.77
2017-09-27T03:33:57.155Z,24.47
2017-09-27T03:36:25.686Z,30.00
2017-09-27T03:38:54.218Z,26.93
2017-09-27T03:41:22.683Z,26.70
2017-09-27T03:43:51.178Z,27.23
2017-09-27T03:46:19.662Z,33.10
2017-09-27T03:48:48.335Z,23.07
2017-09-27T03:51:16.813Z,25.53
2017-09-27T03:53:45.317Z,23.97
2017-09-27T03:56:13.833Z,31.13
2017-09-27T03:58:42.522Z,29.87
2017-09-27T04:01:11.042Z,31.60
2017-09-27T04:03:39.527Z,32.20
2017-09-27T04:06:08.015Z,26.30
2017-09-27T04:08:36.547Z,28.13
2017-09-27T04:11:05.070Z,27.77
2017-09-27T04:13:33.594Z,27.30
2017-09-27T04:16:02.917Z,28.63
2017-09-27T04:18:31.445Z,29.40
2017-09-27T04:20:59.947Z,34.17
2017-09-27T04:23:28.485Z,35.67
2017-09-27T04:25:57.079Z,30.00
2017-09-27T04:28:25.698Z,32.67
2017-09-27T04:30:55.009Z,30.97
2017-09-27T04:33:28.938Z,31.30
2017-09-27T04:35:57.585Z,29.37
2017-09-27T04:38:26.182Z,25.30
2017-09-27T04:40:57.264Z,24.73
2017-09-27T04:43:28.499Z,31.07
2017-09-27T04:51:48.973Z,30.80
2017-09-27T04:54:18.915Z,31.20
2017-09-27T04:56:58.582Z,25.20
2017-09-27T04:59:27.115Z,24.43
2017-09-27T05:01:55.632Z,22.43
2017-09-27T05:04:26.026Z,24.53
2017-09-27T05:06:54.563Z,27.73
2017-09-27T05:09:23.842Z,22.53
2017-09-27T05:11:52.338Z,17.70
2017-09-27T05:14:20.706Z,17.60
2017-09-27T05:16:49.299Z,17.37
2017-09-27T05:19:18.675Z,20.40
2017-09-27T05:21:47.240Z,21.27
2017-09-27T05:24:15.812Z,23.40
2017-09-27T05:26:44.390Z,20.57
2017-09-27T05:29:12.929Z,25.00
2017-09-27T05:31:41.450Z,27.27
2017-09-27T05:34:10.082Z,24.17
2017-09-27T05:36:39.525Z,31.17
2017-09-27T05:39:08.204Z,30.67
2017-09-27T05:44:12.279Z,43.40
2017-09-27T05:46:40.789Z,39.37
2017-09-27T05:49:09.172Z,32.57
2017-09-27T05:51:37.690Z,35.80
2017-09-27T05:54:06.986Z,32.20
2017-09-27T05:56:36.055Z,35.83
2017-09-27T05:59:04.584Z,30.20
2017-09-27T06:01:33.102Z,30.90
2017-09-27T06:04:01.639Z,30.53
2017-09-27T06:06:30.208Z,39.43
2017-09-27T06:08:58.750Z,34.43
2017-09-27T06:11:27.277Z,33.03
2017-09-27T06:13:56.642Z,32.20
2017-09-27T06:16:25.692Z,33.57
2017-09-27T06:18:54.294Z,27.63
2017-09-27T06:21:22.909Z,30.93
2017-09-27T06:23:51.397Z,36.10
2017-09-27T06:26:19.888Z,38.03
2017-09-27T06:28:48.600Z,32.57
2017-09-27T06:31:17.939Z,39.63
2017-09-27T06:33:46.442Z,43.67
2017-09-27T06:36:14.945Z,38.97
2017-09-27T06:38:43.517Z,40.10
2017-09-27T06:41:12.046Z,38.40
2017-09-27T06:43:41.343Z,36.63
2017-09-27T06:46:10.670Z,31.73
2017-09-27T06:48:39.159Z,39.10
2017-09-27T06:51:07.691Z,31.40
2017-09-27T06:53:36.252Z,32.30
2017-09-27T06:56:04.783Z,31.00
2017-09-27T06:58:34.059Z,34.40
2017-09-27T07:01:02.563Z,36.27
2017-09-27T07:03:31.096Z,32.60
2017-09-27T07:05:59.616Z,38.57
2017-09-27T07:08:28.184Z,35.17
2017-09-27T07:10:56.663Z,32.70
2017-09-27T07:13:25.172Z,31.13
2017-09-27T07:15:54.494Z,30.43
2017-09-27T07:18:23.234Z,29.43
2017-09-27T07:20:51.727Z,30.13
2017-09-27T07:23:20.231Z,29.27
2017-09-27T07:25:49.561Z,26.60
2017-09-27T07:28:18.034Z,28.60
2017-09-27T07:30:46.583Z,26.80
2017-09-27T07:33:14.959Z,29.70
2017-09-27T07:35:43.495Z,28.77
2017-09-27T07:38:12.026Z,24.63
2017-09-27T07:40:40.535Z,35.73
2017-09-27T07:43:09.808Z,21.53
2017-09-27T07:45:38.329Z,20.80
2017-09-27T07:48:06.893Z,24.30
2017-09-27T07:50:35.383Z,20.43
2017-09-27T07:53:04.662Z,22.23
2017-09-27T07:55:33.154Z,19.00
2017-09-27T07:58:01.715Z,18.67
2017-09-27T08:00:30.186Z,20.57
2017-09-27T08:02:58.650Z,18.03
2017-09-27T08:05:27.223Z,18.67
2017-09-27T08:07:55.695Z,16.53
2017-09-27T08:10:24.217Z,16.37
2017-09-27T08:12:52.714Z,16.53
2017-09-27T08:15:20.565Z,15.93
2017-09-27T08:17:49.062Z,16.23
2017-09-27T08:20:17.546Z,16.73
2017-09-27T08:22:46.026Z,13.40
2017-09-27T08:25:14.476Z,16.10
2017-09-27T08:27:42.936Z,20.33
2017-09-27T08:30:11.460Z,17.57
2017-09-27T08:32:39.942Z,13.57
2017-09-27T08:35:08.470Z,15.40
2017-09-27T08:37:37.720Z,15.80
2017-09-27T08:40:06.183Z,15.57
2017-09-27T08:42:34.733Z,14.50
2017-09-27T08:45:04.014Z,15.93
2017-09-27T08:47:32.514Z,14.57
2017-09-27T08:50:00.974Z,12.93
2017-09-27T08:52:29.471Z,23.30
2017-09-27T08:54:57.930Z,15.27
2017-09-27T08:57:26.412Z,11.97
2017-09-27T08:59:54.891Z,16.00
2017-09-27T09:02:23.351Z,17.80
2017-09-27T09:04:51.855Z,11.43
2017-09-27T09:07:20.343Z,15.60
2017-09-27T09:09:48.808Z,13.60
2017-09-27T09:12:17.271Z,12.40
2017-09-27T09:14:45.767Z,13.73
2017-09-27T09:17:14.228Z,13.63
2017-09-27T09:19:42.703Z,13.13
2017-09-27T09:22:11.259Z,20.90
2017-09-27T09:24:39.800Z,12.23
2017-09-27T09:27:08.290Z,12.13
2017-09-27T09:29:36.771Z,11.37
2017-09-27T09:32:05.283Z,10.30
2017-09-27T09:34:33.755Z,11.63
2017-09-27T09:37:02.342Z,12.47
2017-09-27T09:39:30.902Z,12.10
2017-09-27T09:41:59.417Z,12.23
2017-09-27T09:44:27.982Z,12.33
2017-09-27T09:46:56.514Z,12.23
2017-09-27T09:49:25.830Z,12.77
2017-09-27T09:51:54.171Z,14.90
2017-09-27T09:54:22.677Z,12.30
2017-09-27T09:56:51.942Z,19.90
2017-09-27T09:59:20.511Z,11.10
2017-09-27T10:01:49.012Z,12.30
2017-09-27T10:04:17.506Z,13.27
2017-09-27T10:06:46.059Z,12.80
2017-09-27T10:09:14.571Z,10.40
2017-09-27T10:11:43.048Z,9.97
2017-09-27T10:14:11.579Z,10.07
2017-09-27T10:16:40.087Z,9.00
2017-09-27T10:19:08.599Z,10.33
2017-09-27T10:21:37.572Z,11.63
2017-09-27T10:24:06.280Z,10.27
2017-09-27T10:26:35.667Z,13.03
2017-09-27T10:29:04.240Z,13.60
2017-09-27T10:31:32.759Z,11.33
2017-09-27T10:34:01.311Z,10.53
2017-09-27T10:36:29.818Z,10.00
2017-09-27T10:38:58.373Z,12.10
2017-09-27T10:41:26.898Z,11.03
2017-09-27T10:43:56.180Z,10.70
2017-09-27T10:46:24.671Z,11.87
2017-09-27T10:48:53.559Z,12.27
2017-09-27T10:51:22.122Z,14.33
2017-09-27T10:53:50.642Z,13.03
2017-09-27T10:56:19.219Z,14.27
2017-09-27T10:58:48.483Z,13.20
2017-09-27T11:01:16.980Z,11.33
2017-09-27T11:03:46.477Z,16.33
2017-09-27T11:06:15.552Z,14.47
2017-09-27T11:08:44.090Z,17.47
2017-09-27T11:11:13.612Z,16.57
2017-09-27T11:13:42.481Z,16.20
2017-09-27T11:16:10.995Z,18.73
2017-09-27T11:18:39.347Z,19.63
2017-09-27T11:21:07.867Z,14.70
2017-09-27T11:23:36.470Z,14.73
2017-09-27T11:26:05.004Z,14.40
2017-09-27T11:28:34.319Z,16.20
2017-09-27T11:31:03.623Z,15.27
2017-09-27T11:33:32.924Z,16.67
2017-09-27T11:36:01.462Z,15.90
2017-09-27T11:38:29.991Z,21.00
2017-09-27T11:40:58.459Z,19.20
2017-09-27T11:43:26.971Z,17.20
2017-09-27T11:45:55.507Z,19.00
2017-09-27T11:48:23.969Z,18.30
2017-09-27T11:50:52.461Z,19.90
2017-09-27T11:53:20.991Z,19.80
2017-09-27T11:55:50.266Z,22.53
2017-09-27T11:58:18.819Z,20.93
2017-09-27T12:00:47.350Z,21.67
2017-09-27T12:03:15.714Z,22.10
2017-09-27T12:05:44.260Z,20.90
2017-09-27T12:08:12.732Z,24.80
2017-09-27T12:10:41.201Z,23.03
2017-09-27T12:13:09.682Z,26.20
2017-09-27T12:15:38.176Z,22.20
2017-09-27T12:18:06.653Z,22.83
2017-09-27T12:20:35.154Z,23.20
2017-09-27T12:23:03.638Z,22.07
2017-09-27T12:25:32.133Z,24.17
2017-09-27T12:28:00.712Z,19.80
2017-09-27T12:30:29.226Z,22.13
2017-09-27T12:32:57.744Z,19.80
2017-09-27T12:35:26.270Z,22.67
2017-09-27T12:37:54.765Z,24.63
2017-09-27T12:40:23.242Z,22.00
2017-09-27T12:42:51.594Z,20.90
2017-09-27T12:45:20.119Z,23.80
2017-09-27T12:47:49.374Z,21.00
2017-09-27T12:50:17.875Z,28.27
2017-09-27T12:52:46.382Z,22.70
2017-09-27T12:55:14.902Z,23.03
2017-09-27T12:57:43.418Z,22.33
2017-09-27T13:00:11.955Z,23.13
2017-09-27T13:02:41.238Z,24.17
2017-09-27T13:05:10.540Z,23.47
2017-09-27T13:07:39.235Z,28.80
2017-09-27T13:10:08.463Z,24.00
2017-09-27T13:12:36.975Z,31.60
2017-09-27T13:15:05.442Z,25.10
2017-09-27T13:17:33.951Z,25.30
2017-09-27T13:20:02.492Z,24.57
2017-09-27T13:22:31.031Z,26.40
2017-09-27T13:24:59.524Z,25.37
2017-09-27T13:27:28.055Z,22.50
2017-09-27T13:29:56.551Z,22.27
2017-09-27T13:32:25.041Z,22.77
2017-09-27T13:34:53.574Z,29.63
2017-09-27T13:37:23.003Z,26.67
2017-09-27T13:39:51.478Z,27.63
2017-09-27T13:42:20.044Z,26.53
2017-09-27T13:44:48.555Z,28.37
2017-09-27T13:47:17.050Z,36.83
2017-09-27T13:49:45.626Z,27.57
2017-09-27T13:55:44.996Z,30.47
2017-09-27T13:58:13.831Z,25.20
2017-09-27T14:00:42.427Z,26.50
2017-09-27T14:03:10.930Z,25.53
2017-09-27T14:05:39.434Z,23.33
2017-09-27T14:08:07.949Z,27.43
2017-09-27T14:10:36.560Z,27.20
2017-09-27T14:13:05.135Z,33.70
2017-09-27T14:18:08.140Z,23.97
2017-09-27T14:20:36.657Z,27.80
2017-09-27T14:23:21.324Z,25.30
2017-09-27T14:25:49.831Z,27.43
2017-09-27T14:28:19.132Z,25.07
2017-09-27T14:30:47.619Z,23.20
2017-09-27T14:33:16.890Z,28.70
2017-09-27T14:35:45.419Z,26.87
2017-09-27T14:38:13.727Z,35.90
2017-09-27T14:40:42.195Z,25.57
2017-09-27T14:43:10.730Z,20.40
2017-09-27T14:45:39.243Z,21.20
2017-09-27T14:48:07.807Z,21.57
2017-09-27T14:50:37.134Z,24.13
2017-09-27T14:53:05.674Z,27.30
2017-09-27T14:55:34.981Z,27.43
2017-09-27T14:58:03.551Z,25.90
2017-09-27T15:00:32.085Z,21.73
2017-09-27T15:03:00.797Z,27.10
2017-09-27T15:05:29.327Z,24.77
2017-09-27T15:07:59.511Z,26.80
2017-09-27T15:10:27.742Z,20.40
2017-09-27T15:12:56.290Z,28.10
2017-09-27T15:15:25.567Z,29.60
2017-09-27T15:17:54.098Z,21.47
2017-09-27T15:20:23.515Z,21.17
2017-09-27T15:22:52.092Z,22.83
2017-09-27T15:25:21.082Z,20.53
2017-09-27T15:27:49.666Z,24.07
2017-09-27T15:30:19.025Z,22.50
2017-09-27T15:32:47.558Z,24.53
2017-09-27T15:35:16.117Z,28.07
2017-09-27T15:37:44.657Z,21.37
2017-09-27T15:40:13.204Z,28.47
2017-09-27T15:42:42.544Z,26.63
2017-09-27T15:45:11.048Z,25.93
2017-09-27T15:47:39.537Z,23.60
2017-09-27T15:50:08.107Z,25.80
2017-09-27T15:52:36.618Z,24.37
2017-09-27T15:55:05.103Z,24.13
2017-09-27T15:57:33.694Z,25.00
2017-09-27T16:00:02.338Z,20.80
2017-09-27T16:02:31.554Z,21.30
2017-09-27T16:05:00.106Z,30.03
2017-09-27T16:07:28.763Z,27.23
2017-09-27T16:09:57.545Z,21.90
2017-09-27T16:12:26.882Z,23.37
2017-09-27T16:14:55.420Z,19.23
2017-09-27T16:17:24.656Z,17.80
2017-09-27T16:19:53.380Z,16.23
2017-09-27T16:22:23.610Z,22.33
2017-09-27T16:24:52.346Z,15.87
2017-09-27T16:27:35.941Z,20.00
2017-09-27T16:30:03.851Z,16.17
2017-09-27T16:33:03.299Z,21.33
2017-09-27T16:35:32.143Z,19.00
2017-09-27T16:38:00.793Z,25.00
2017-09-27T16:40:35.978Z,24.50
2017-09-27T16:56:13.734Z,21.57
2017-09-27T16:58:42.720Z,18.77
2017-09-27T17:01:13.730Z,18.80
2017-09-27T17:03:42.473Z,21.30
2017-09-27T17:06:11.296Z,15.70
2017-09-27T17:08:39.938Z,23.40
2017-09-27T17:11:08.617Z,23.53
2017-09-27T17:13:37.271Z,16.77
2017-09-27T17:16:20.670Z,17.93
2017-09-27T17:19:05.946Z,21.33
2017-09-27T17:21:35.984Z,18.77
2017-09-27T17:24:05.820Z,16.97
2017-09-27T17:26:35.518Z,16.40
2017-09-27T17:29:06.779Z,17.80
2017-09-27T17:31:38.755Z,20.97
2017-09-27T17:36:52.485Z,29.53
2017-09-27T17:39:21.004Z,75.20
2017-09-27T17:41:50.402Z,53.33
2017-09-27T17:44:18.936Z,30.90
2017-09-27T17:46:57.075Z,28.33
2017-09-27T17:49:33.683Z,15.87
2017-09-27T17:52:03.044Z,17.30
2017-09-27T17:54:31.363Z,16.77
2017-09-27T17:56:59.906Z,14.47
2017-09-27T17:59:28.492Z,19.43
2017-09-27T18:02:01.384Z,13.93
2017-09-27T18:07:49.271Z,20.87
2017-09-27T18:10:22.541Z,17.37
2017-09-27T18:12:57.484Z,17.13
2017-09-27T18:15:31.578Z,15.27
2017-09-27T18:18:05.947Z,17.30
2017-09-27T18:20:37.665Z,26.63
2017-09-27T18:23:23.148Z,14.93
2017-09-27T18:33:39.846Z,17.00
2017-09-27T18:36:08.438Z,16.27
2017-09-27T18:38:36.812Z,17.00
2017-09-27T18:41:05.372Z,18.30
2017-09-27T18:43:33.864Z,19.23
2017-09-27T18:46:02.243Z,16.03
2017-09-27T18:48:30.794Z,18.60
2017-09-27T18:50:59.326Z,17.13
2017-09-27T18:53:27.879Z,15.57
2017-09-27T18:55:56.459Z,14.33
2017-09-27T18:58:24.960Z,15.17
2017-09-27T19:00:54.230Z,16.53
2017-09-27T19:03:22.793Z,15.73
2017-09-27T19:05:51.351Z,24.93
2017-09-27T19:08:20.651Z,16.87
2017-09-27T19:10:49.975Z,14.40
2017-09-27T19:13:18.518Z,15.07
2017-09-27T19:15:47.082Z,14.23
2017-09-27T19:18:15.648Z,17.53
2017-09-27T19:20:44.238Z,14.70
2017-09-27T19:23:12.946Z,18.67
2017-09-27T19:25:41.515Z,15.13
2017-09-27T19:28:10.063Z,16.90
2017-09-27T19:30:38.640Z,15.70
2017-09-27T19:33:07.323Z,17.10
2017-09-27T19:35:35.898Z,23.03
2017-09-27T19:38:05.190Z,13.40
2017-09-27T19:40:33.912Z,13.63
2017-09-27T19:43:02.621Z,17.67
2017-09-27T19:45:31.208Z,14.53
2017-09-27T19:47:59.926Z,16.13
2017-09-27T19:50:29.148Z,17.33
2017-09-27T19:52:57.722Z,13.93
2017-09-27T19:55:26.750Z,18.03
2017-09-27T19:57:55.346Z,17.37
2017-09-27T20:00:24.093Z,14.50
2017-09-27T20:02:52.668Z,15.40
2017-09-27T20:05:20.899Z,19.53
2017-09-27T20:07:50.525Z,13.87
2017-09-27T20:10:21.864Z,17.20
2017-09-27T20:12:51.754Z,14.13
2017-09-27T20:17:54.483Z,14.73
2017-09-27T20:20:23.857Z,13.47
2017-09-27T20:22:53.400Z,17.10
2017-09-27T20:25:22.864Z,13.40
2017-09-27T20:27:51.491Z,13.20
2017-09-27T20:30:20.810Z,20.47
2017-09-27T20:32:49.726Z,23.40
2017-09-27T20:35:18.214Z,13.30
2017-09-27T20:37:46.830Z,19.47
2017-09-27T20:40:15.457Z,14.53
2017-09-27T20:42:46.022Z,13.33
2017-09-27T20:45:16.875Z,14.43
2017-09-27T20:47:46.594Z,19.33
2017-09-27T20:50:16.792Z,13.63
2017-09-27T20:52:46.880Z,16.43
2017-09-27T20:55:16.795Z,16.20
2017-09-27T20:57:45.983Z,21.20
2017-09-27T21:00:15.128Z,16.13
2017-09-27T21:02:43.728Z,16.90
2017-09-27T21:05:12.014Z,15.93
2017-09-27T21:07:40.728Z,17.73
2017-09-27T21:10:09.338Z,15.33
2017-09-27T21:12:37.890Z,17.17
2017-09-27T21:15:06.466Z,16.50
2017-09-27T21:17:34.887Z,20.33
2017-09-27T21:20:03.547Z,20.20
2017-09-27T21:22:32.441Z,17.00
2017-09-27T21:25:05.398Z,17.07
2017-09-27T21:38:37.397Z,21.40
2017-09-27T21:41:07.048Z,15.10
2017-09-27T21:43:35.814Z,14.67
2017-09-27T21:46:04.516Z,17.53
2017-09-27T21:48:33.828Z,17.43
2017-09-27T21:51:03.192Z,22.43
2017-09-27T21:53:32.759Z,16.73
2017-09-27T21:56:01.957Z,17.77
2017-09-27T21:58:30.674Z,17.33
2017-09-27T22:01:02.172Z,15.10
2017-09-27T22:03:30.818Z,17.30
2017-09-27T22:06:02.050Z,15.00
2017-09-27T22:08:30.975Z,16.07
2017-09-27T22:10:59.568Z,22.20
2017-09-27T22:13:27.760Z,17.43
2017-09-27T22:15:57.122Z,20.77
2017-09-27T22:18:25.667Z,16.27
2017-09-27T22:20:54.241Z,16.27
2017-09-27T22:23:22.861Z,18.83
2017-09-27T22:25:51.428Z,24.80
2017-09-27T22:28:20.055Z,18.23
2017-09-27T22:30:49.995Z,24.67
2017-09-27T22:33:18.713Z,20.47
2017-09-27T22:35:47.286Z,16.90
2017-09-27T22:38:15.947Z,17.17
2017-09-27T22:40:44.615Z,19.20
2017-09-27T22:43:14.419Z,16.20
2017-09-27T22:45:43.048Z,29.33
2017-09-27T22:48:12.005Z,14.50
2017-09-27T22:50:40.350Z,15.63
2017-09-27T22:53:08.957Z,14.30
2017-09-27T22:55:37.585Z,16.27
2017-09-27T22:58:06.362Z,21.83
2017-09-27T23:00:34.955Z,16.00
2017-09-27T23:03:03.553Z,16.63
2017-09-27T23:05:32.442Z,16.17
2017-09-27T23:08:01.076Z,18.43
2017-09-27T23:10:31.433Z,14.90
2017-09-27T23:13:01.298Z,16.87
2017-09-27T23:15:29.930Z,18.43
2017-09-27T23:17:58.650Z,18.53
2017-09-27T23:20:28.102Z,17.97
2017-09-27T23:23:00.677Z,18.90
2017-09-27T23:25:30.538Z,17.67
2017-09-27T23:27:59.386Z,21.63
2017-09-27T23:30:28.092Z,18.70
2017-09-27T23:33:00.208Z,19.60
2017-09-27T23:35:28.833Z,22.17
2017-09-27T23:37:57.418Z,22.27
2017-09-27T23:40:26.698Z,25.80
2017-09-27T23:42:55.264Z,16.87
2017-09-27T23:45:23.894Z,18.97
2017-09-27T23:47:53.259Z,21.10
2017-09-27T23:50:21.843Z,20.63
2017-09-27T23:52:50.407Z,22.63
2017-09-27T23:55:18.991Z,19.47
2017-09-27T23:57:47.543Z,21.83
